Time;durP1;ratioP1;P1;durP2;ratioP2;P2;SDS_P1;SDS_P2;PMS_P1;PMS_P2;Temp;Humidity;BMP_temperature;BMP_pressure;BME280_temperature;BME280_humidity;BME280_pressure;Samples;Min_cycle;Max_cycle;Signal;HPM_P1;HPM_P2
2023/03/09 00:01:54;;;;;;;27.70;9.05;;;;;;;;;;6259240;22;20062;-94
2023/03/09 00:04:24;;;;;;;18.35;8.05;;;;;;;;;;6280634;22;20000;-94
2023/03/09 00:06:54;;;;;;;21.23;8.05;;;;;;;;;;6253403;22;20087;-95
2023/03/09 00:09:20;;;;;;;20.27;8.82;;;;;;;;;;6253002;22;19999;-94
2023/03/09 00:11:48;;;;;;;18.42;7.95;;;;;;;;;;6277175;22;20425;-94
2023/03/09 00:14:14;;;;;;;22.85;8.25;;;;;;;;;;6276730;22;20019;-95
2023/03/09 00:16:41;;;;;;;23.58;8.40;;;;;;;;;;6276328;22;20064;-95
2023/03/09 00:19:10;;;;;;;17.35;8.48;;;;;;;;;;6303267;22;20003;-95
2023/03/09 00:21:46;;;;;;;18.67;8.13;;;;;;;;;;6250007;22;20007;-94
2023/03/09 00:24:14;;;;;;;22.60;8.55;;;;;;;;;;6275189;22;20012;-95
2023/03/09 00:26:51;;;;;;;17.48;8.13;;;;;;;;;;6274448;22;20480;-93
2023/03/09 00:29:17;;;;;;;20.42;8.35;;;;;;;;;;6272572;22;20010;-93
2023/03/09 00:32:05;;;;;;;18.63;9.02;;;;;;;;;;6274005;22;20003;-94
2023/03/09 00:34:40;;;;;;;19.67;8.60;;;;;;;;;;6302279;22;20004;-94
2023/03/09 00:37:06;;;;;;;22.80;10.23;;;;;;;;;;6251135;22;20004;-94
2023/03/09 00:39:32;;;;;;;26.63;10.23;;;;;;;;;;6247769;22;20019;-94
2023/03/09 00:42:00;;;;;;;22.80;9.98;;;;;;;;;;6248271;22;20007;-94
2023/03/09 00:44:26;;;;;;;21.90;10.35;;;;;;;;;;6246112;22;20035;-94
2023/03/09 00:46:52;;;;;;;25.08;10.70;;;;;;;;;;6249376;22;20316;-94
2023/03/09 00:49:21;;;;;;;30.92;10.75;;;;;;;;;;6248031;22;20066;-94
2023/03/09 00:51:50;;;;;;;20.25;9.95;;;;;;;;;;6248706;22;20368;-94
2023/03/09 00:54:16;;;;;;;23.90;9.80;;;;;;;;;;6272805;22;20019;-94
2023/03/09 00:56:43;;;;;;;23.23;10.13;;;;;;;;;;6250095;22;20011;-94
2023/03/09 00:59:12;;;;;;;22.88;10.20;;;;;;;;;;6274953;22;20003;-95
2023/03/09 01:01:39;;;;;;;21.17;10.13;;;;;;;;;;6250203;22;20011;-95
2023/03/09 01:04:09;;;;;;;25.73;10.27;;;;;;;;;;6302522;22;20452;-94
2023/03/09 01:06:35;;;;;;;24.17;9.13;;;;;;;;;;6273426;22;20061;-94
2023/03/09 01:09:02;;;;;;;22.10;9.48;;;;;;;;;;6250485;22;20008;-94
2023/03/09 01:11:28;;;;;;;26.95;10.02;;;;;;;;;;6250394;22;20015;-94
2023/03/09 01:14:08;;;;;;;24.58;10.40;;;;;;;;;;6275046;22;20448;-95
2023/03/09 01:16:34;;;;;;;24.40;10.27;;;;;;;;;;6250829;22;20021;-95
2023/03/09 01:19:00;;;;;;;25.33;10.48;;;;;;;;;;6249516;22;20026;-94
2023/03/09 01:21:26;;;;;;;24.98;11.88;;;;;;;;;;6249187;22;20033;-95
2023/03/09 01:23:53;;;;;;;24.65;10.35;;;;;;;;;;6248696;22;20011;-95
2023/03/09 01:26:28;;;;;;;23.67;10.65;;;;;;;;;;6249076;22;20071;-94
2023/03/09 01:28:55;;;;;;;24.58;10.13;;;;;;;;;;6248836;22;20061;-94
2023/03/09 01:31:21;;;;;;;25.50;10.40;;;;;;;;;;6249225;22;20102;-94
2023/03/09 01:33:48;;;;;;;23.35;9.52;;;;;;;;;;6273842;22;20341;-94
2023/03/09 01:36:25;;;;;;;21.40;9.88;;;;;;;;;;6275453;22;20086;-95
2023/03/09 01:38:52;;;;;;;25.13;10.60;;;;;;;;;;6276543;22;20070;-94
2023/03/09 01:41:19;;;;;;;25.75;9.63;;;;;;;;;;6276062;22;20445;-94
2023/03/09 01:43:50;;;;;;;32.40;11.15;;;;;;;;;;6272585;22;20417;-94
2023/03/09 01:46:26;;;;;;;24.20;10.52;;;;;;;;;;6275556;22;20008;-94
2023/03/09 01:49:01;;;;;;;23.80;10.50;;;;;;;;;;6274947;22;20016;-95
2023/03/09 01:51:30;;;;;;;31.90;11.77;;;;;;;;;;6275359;22;20514;-95
2023/03/09 01:54:23;;;;;;;29.42;10.68;;;;;;;;;;6248810;22;20821;-95
2023/03/09 01:56:52;;;;;;;21.40;9.77;;;;;;;;;;6260176;22;20030;-95
2023/03/09 01:59:28;;;;;;;27.67;10.23;;;;;;;;;;6272740;22;20347;-94
2023/03/09 02:01:54;;;;;;;;;;;;;;;;;;6274329;22;20104;-94
2023/03/09 02:04:24;;;;;;;24.88;9.35;;;;;;;;;;6273778;22;20279;-94
2023/03/09 02:06:51;;;;;;;23.48;10.48;;;;;;;;;;6248804;22;20071;-94
2023/03/09 02:09:38;;;;;;;23.90;9.65;;;;;;;;;;6248733;22;20008;-95
2023/03/09 02:12:07;;;;;;;21.23;9.70;;;;;;;;;;6273423;22;20365;-95
2023/03/09 02:14:33;;;;;;;22.92;10.20;;;;;;;;;;6244603;22;20468;-93
2023/03/09 02:17:00;;;;;;;24.48;9.82;;;;;;;;;;6243814;22;20023;-94
2023/03/09 02:19:50;;;;;;;29.00;11.50;;;;;;;;;;6243633;22;20058;-94
2023/03/09 02:22:16;;;;;;;26.88;11.25;;;;;;;;;;6250558;22;20541;-94
2023/03/09 02:24:54;;;;;;;32.08;11.63;;;;;;;;;;6267400;22;20035;-95
2023/03/09 02:27:30;;;;;;;26.25;11.65;;;;;;;;;;6273680;22;20003;-95
2023/03/09 02:30:05;;;;;;;33.60;12.10;;;;;;;;;;6302557;22;20512;-94
2023/03/09 02:32:35;;;;;;;29.65;11.02;;;;;;;;;;6275108;22;20003;-94
2023/03/09 02:35:01;;;;;;;27.75;10.93;;;;;;;;;;6250689;22;20031;-94
2023/03/09 02:37:29;;;;;;;31.27;11.90;;;;;;;;;;6276188;22;20007;-95
2023/03/09 02:39:57;;;;;;;29.20;11.55;;;;;;;;;;6275569;22;20090;-95
2023/03/09 02:42:23;;;;;;;33.50;11.85;;;;;;;;;;6250406;22;20007;-94
2023/03/09 02:44:58;;;;;;;35.80;12.48;;;;;;;;;;6249324;22;20018;-94
2023/03/09 02:47:36;;;;;;;34.38;11.15;;;;;;;;;;6274886;22;20002;-94
2023/03/09 02:50:09;;;;;;;33.58;11.60;;;;;;;;;;6278376;22;20003;-94
2023/03/09 02:52:35;;;;;;;32.58;12.18;;;;;;;;;;6274833;22;20011;-94
2023/03/09 02:55:04;;;;;;;36.10;13.38;;;;;;;;;;6277238;22;20498;-95
2023/03/09 02:57:31;;;;;;;35.65;12.07;;;;;;;;;;6251082;22;20039;-94
2023/03/09 02:59:58;;;;;;;29.17;12.20;;;;;;;;;;6252184;22;20015;-94
2023/03/09 03:02:48;;;;;;;32.35;12.18;;;;;;;;;;6278393;22;20007;-94
2023/03/09 03:05:16;;;;;;;32.22;12.10;;;;;;;;;;6235066;22;20052;-94
2023/03/09 03:07:43;;;;;;;43.03;14.02;;;;;;;;;;6254249;22;20060;-94
2023/03/09 03:10:09;;;;;;;38.20;13.38;;;;;;;;;;6252907;22;20092;-94
2023/03/09 03:12:36;;;;;;;35.42;12.75;;;;;;;;;;6277733;22;20037;-93
2023/03/09 03:15:04;;;;;;;35.90;13.13;;;;;;;;;;6257623;22;20086;-93
2023/03/09 03:17:30;;;;;;;32.85;13.30;;;;;;;;;;6285288;22;20174;-94
2023/03/09 03:19:56;;;;;;;40.25;13.48;;;;;;;;;;6258438;22;20007;-93
2023/03/09 03:22:22;;;;;;;31.48;12.52;;;;;;;;;;6257225;22;20011;-95
2023/03/09 03:24:49;;;;;;;33.97;13.48;;;;;;;;;;6287275;22;20003;-95
2023/03/09 03:27:20;;;;;;;42.05;13.02;;;;;;;;;;6259936;22;20079;-94
2023/03/09 03:29:49;;;;;;;34.00;13.02;;;;;;;;;;6269344;22;19995;-93
2023/03/09 03:32:15;;;;;;;36.33;14.35;;;;;;;;;;6296037;22;20002;-94
2023/03/09 03:34:45;;;;;;;35.08;13.80;;;;;;;;;;6293223;22;20026;-93
2023/03/09 03:37:13;;;;;;;35.95;13.48;;;;;;;;;;6267676;22;20015;-94
2023/03/09 03:39:46;;;;;;;42.80;15.10;;;;;;;;;;6261251;22;20011;-94
2023/03/09 03:42:12;;;;;;;35.45;12.88;;;;;;;;;;6280204;22;20015;-95
2023/03/09 03:44:38;;;;;;;36.90;15.57;;;;;;;;;;6250094;22;20029;-94
2023/03/09 03:47:05;;;;;;;40.65;14.68;;;;;;;;;;6252001;22;20011;-94
2023/03/09 03:49:31;;;;;;;36.65;14.85;;;;;;;;;;6251853;22;20007;-94
2023/03/09 03:51:57;;;;;;;35.80;13.02;;;;;;;;;;6252199;22;20015;-95
2023/03/09 03:54:23;;;;;;;32.97;13.98;;;;;;;;;;6275078;22;20003;-95
2023/03/09 03:56:49;;;;;;;32.40;12.85;;;;;;;;;;6275911;22;20011;-95
2023/03/09 03:59:15;;;;;;;37.83;14.77;;;;;;;;;;6250088;22;20053;-95
2023/03/09 04:01:44;;;;;;;33.97;12.43;;;;;;;;;;6274629;22;20031;-95
2023/03/09 04:04:18;;;;;;;36.30;14.02;;;;;;;;;;6249219;22;20031;-94
2023/03/09 04:06:44;;;;;;;34.97;13.30;;;;;;;;;;6250364;22;20010;-95
2023/03/09 04:09:11;;;;;;;38.10;14.73;;;;;;;;;;6246356;22;20007;-95
2023/03/09 04:11:46;;;;;;;42.72;14.60;;;;;;;;;;6272497;22;20483;-94
2023/03/09 04:14:15;;;;;;;35.75;14.32;;;;;;;;;;6248733;22;20015;-94
2023/03/09 04:16:51;;;;;;;40.67;15.02;;;;;;;;;;6273716;22;20072;-95
2023/03/09 04:19:18;;;;;;;36.90;13.32;;;;;;;;;;6249535;22;20098;-95
2023/03/09 04:21:44;;;;;;;36.65;15.05;;;;;;;;;;6274261;22;20197;-95
2023/03/09 04:24:10;;;;;;;33.28;13.82;;;;;;;;;;6247891;22;20106;-95
2023/03/09 04:26:37;;;;;;;37.20;15.18;;;;;;;;;;6249033;22;20014;-95
2023/03/09 04:29:03;;;;;;;40.15;13.80;;;;;;;;;;6247869;22;20073;-95
2023/03/09 04:31:29;;;;;;;37.88;14.60;;;;;;;;;;6251415;22;20026;-94
2023/03/09 04:33:56;;;;;;;39.60;14.15;;;;;;;;;;6251192;22;20026;-95
2023/03/09 04:36:25;;;;;;;38.13;15.30;;;;;;;;;;6251240;22;20015;-95
2023/03/09 04:38:54;;;;;;;42.70;15.27;;;;;;;;;;6277075;22;20007;-95
2023/03/09 04:41:21;;;;;;;38.10;13.95;;;;;;;;;;6251572;22;20022;-96
2023/03/09 04:43:47;;;;;;;35.15;13.70;;;;;;;;;;6248212;22;20258;-95
2023/03/09 04:46:14;;;;;;;34.63;14.75;;;;;;;;;;6250491;22;20013;-94
2023/03/09 04:48:43;;;;;;;35.08;14.57;;;;;;;;;;6250302;22;20316;-95
2023/03/09 04:51:18;;;;;;;32.40;13.18;;;;;;;;;;6275812;22;20018;-95
2023/03/09 04:53:44;;;;;;;34.78;14.13;;;;;;;;;;6252898;22;20435;-95
2023/03/09 04:56:13;;;;;;;32.53;12.88;;;;;;;;;;6252820;22;20028;-93
2023/03/09 04:58:40;;;;;;;36.33;14.38;;;;;;;;;;6274725;22;20144;-94
2023/03/09 05:01:08;;;;;;;39.17;13.32;;;;;;;;;;6302186;22;20003;-95
2023/03/09 05:03:35;;;;;;;35.50;13.50;;;;;;;;;;6275365;22;20000;-95
2023/03/09 05:06:08;;;;;;;39.67;13.60;;;;;;;;;;6249012;22;20035;-94
2023/03/09 05:08:35;;;;;;;31.33;13.43;;;;;;;;;;6276929;22;20603;-94
2023/03/09 05:11:01;;;;;;;30.98;14.07;;;;;;;;;;6275162;22;20051;-94
2023/03/09 05:13:28;;;;;;;33.22;13.57;;;;;;;;;;6250347;22;20015;-95
2023/03/09 05:15:54;;;;;;;33.03;13.13;;;;;;;;;;6275687;22;20023;-95
2023/03/09 05:18:27;;;;;;;33.58;13.52;;;;;;;;;;6250716;22;20015;-95
2023/03/09 05:20:57;;;;;;;31.50;13.27;;;;;;;;;;6251571;22;20007;-94
2023/03/09 05:23:23;;;;;;;33.72;13.35;;;;;;;;;;6251620;22;20007;-94
2023/03/09 05:26:01;;;;;;;32.25;13.88;;;;;;;;;;6275491;22;20215;-95
2023/03/09 05:28:27;;;;;;;35.25;14.93;;;;;;;;;;6274678;22;20444;-94
2023/03/09 05:30:54;;;;;;;30.35;12.80;;;;;;;;;;6275047;22;20325;-93
2023/03/09 05:33:20;;;;;;;28.65;12.88;;;;;;;;;;6249038;22;20483;-94
2023/03/09 05:35:51;;;;;;;40.53;14.57;;;;;;;;;;6275683;22;20004;-95
2023/03/09 05:38:20;;;;;;;36.65;13.52;;;;;;;;;;6275801;22;20011;-95
2023/03/09 05:40:46;;;;;;;31.35;13.70;;;;;;;;;;6250029;22;20537;-94
2023/03/09 05:43:13;;;;;;;31.20;13.63;;;;;;;;;;6247889;22;20111;-94
2023/03/09 05:45:43;;;;;;;33.42;13.88;;;;;;;;;;6275872;22;20038;-94
2023/03/09 05:48:09;;;;;;;32.03;13.65;;;;;;;;;;6251815;22;20327;-94
2023/03/09 05:50:38;;;;;;;31.30;13.63;;;;;;;;;;6251391;22;20007;-94
2023/03/09 05:53:06;;;;;;;32.00;12.93;;;;;;;;;;6276496;22;20019;-94
2023/03/09 05:55:32;;;;;;;32.35;13.10;;;;;;;;;;6250196;22;20094;-94
2023/03/09 05:57:59;;;;;;;31.88;14.15;;;;;;;;;;6248809;22;20022;-94
2023/03/09 06:00:35;;;;;;;36.67;14.50;;;;;;;;;;6276925;22;20011;-94
2023/03/09 06:03:01;;;;;;;35.92;14.13;;;;;;;;;;6253437;22;20011;-95
2023/03/09 06:05:27;;;;;;;33.25;12.98;;;;;;;;;;6251393;22;20417;-94
2023/03/09 06:07:53;;;;;;;32.63;14.52;;;;;;;;;;6249446;22;20007;-94
2023/03/09 06:10:26;;;;;;;34.60;13.13;;;;;;;;;;6274654;22;20004;-94
2023/03/09 06:12:53;;;;;;;29.98;13.55;;;;;;;;;;6248625;22;20130;-94
2023/03/09 06:15:24;;;;;;;33.20;12.50;;;;;;;;;;6251253;22;20019;-94
2023/03/09 06:17:53;;;;;;;26.13;12.90;;;;;;;;;;6252918;22;20344;-94
2023/03/09 06:20:20;;;;;;;32.38;12.82;;;;;;;;;;6277283;22;20007;-95
2023/03/09 06:22:46;;;;;;;31.92;12.80;;;;;;;;;;6279953;22;20007;-94
2023/03/09 06:28:09;;;;;;;36.03;14.20;;;;;;;;;;6290141;22;20018;-93
2023/03/09 06:30:38;;;;;;;29.15;13.07;;;;;;;;;;6293060;22;20032;-94
2023/03/09 06:33:05;;;;;;;33.70;12.90;;;;;;;;;;6291488;22;20015;-94
2023/03/09 06:35:32;;;;;;;30.63;12.68;;;;;;;;;;6296300;22;20003;-94
2023/03/09 06:38:08;;;;;;;30.40;13.35;;;;;;;;;;6290957;22;20023;-95
2023/03/09 06:40:37;;;;;;;33.10;13.80;;;;;;;;;;6284135;22;20003;-93
2023/03/09 06:43:08;;;;;;;30.45;13.30;;;;;;;;;;6254673;22;20011;-91
2023/03/09 06:45:35;;;;;;;32.25;13.07;;;;;;;;;;6256131;22;20007;-94
2023/03/09 06:48:04;;;;;;;34.40;12.95;;;;;;;;;;6253661;22;20013;-94
2023/03/09 06:50:34;;;;;;;32.63;13.60;;;;;;;;;;6253995;22;20003;-95
2023/03/09 06:53:00;;;;;;;30.38;13.18;;;;;;;;;;6254661;22;20110;-94
2023/03/09 06:55:26;;;;;;;31.52;13.50;;;;;;;;;;6252907;22;20015;-92
2023/03/09 06:57:52;;;;;;;35.60;15.43;;;;;;;;;;6277411;22;20435;-94
2023/03/09 07:00:42;;;;;;;32.72;12.88;;;;;;;;;;6252336;22;20090;-93
2023/03/09 07:03:05;;;;;;;31.00;12.38;;;;;;;;;;6281401;22;20449;-92
2023/03/09 07:05:44;;;;;;;31.55;13.95;;;;;;;;;;6256108;22;20034;-93
2023/03/09 07:08:10;;;;;;;34.08;12.85;;;;;;;;;;6254547;22;20098;-94
2023/03/09 07:10:37;;;;;;;32.50;13.73;;;;;;;;;;6280210;22;20038;-93
2023/03/09 07:13:03;;;;;;;32.28;13.55;;;;;;;;;;6277934;22;20038;-94
2023/03/09 07:15:29;;;;;;;34.92;12.57;;;;;;;;;;6253598;22;20098;-93
2023/03/09 07:17:55;;;;;;;31.50;13.75;;;;;;;;;;6252142;22;20094;-95
2023/03/09 07:20:24;;;;;;;32.22;12.15;;;;;;;;;;6251441;22;20014;-94
2023/03/09 07:22:51;;;;;;;24.55;11.63;;;;;;;;;;6304419;22;20060;-93
2023/03/09 07:25:17;;;;;;;27.75;12.88;;;;;;;;;;6250970;22;20007;-95
2023/03/09 07:27:43;;;;;;;31.13;12.70;;;;;;;;;;6275559;22;20363;-94
2023/03/09 07:30:10;;;;;;;32.75;12.82;;;;;;;;;;6251545;22;20034;-94
2023/03/09 07:32:36;;;;;;;28.75;11.25;;;;;;;;;;6276939;22;20011;-94
2023/03/09 07:35:02;;;;;;;26.73;11.30;;;;;;;;;;6251065;22;20030;-93
2023/03/09 07:37:28;;;;;;;25.08;10.77;;;;;;;;;;6251072;22;20011;-94
2023/03/09 07:39:55;;;;;;;23.58;10.27;;;;;;;;;;6250068;22;20098;-94
2023/03/09 07:42:21;;;;;;;24.30;11.15;;;;;;;;;;6249898;22;20090;-93
2023/03/09 07:44:50;;;;;;;18.92;9.75;;;;;;;;;;6249085;22;20031;-95
2023/03/09 07:47:23;;;;;;;24.45;10.68;;;;;;;;;;6274743;22;20003;-94
2023/03/09 07:52:37;;;;;;;24.20;10.63;;;;;;;;;;6302083;22;20521;-94
2023/03/09 07:55:03;;;;;;;18.98;8.18;;;;;;;;;;6276341;22;20042;-94
2023/03/09 07:57:36;;;;;;;19.42;9.18;;;;;;;;;;6249330;22;20011;-94
2023/03/09 08:00:20;;;;;;;21.98;8.45;;;;;;;;;;6276041;22;20102;-94
2023/03/09 08:02:52;;;;;;;20.58;9.40;;;;;;;;;;6251374;22;20011;-94
2023/03/09 08:05:18;;;;;;;20.80;8.32;;;;;;;;;;6275943;22;19999;-94
2023/03/09 08:07:46;;;;;;;19.65;9.23;;;;;;;;;;6249558;22;20429;-94
2023/03/09 08:10:14;;;;;;;18.85;8.52;;;;;;;;;;6250571;22;20012;-94
2023/03/09 08:12:41;;;;;;;18.17;8.63;;;;;;;;;;6249605;22;20326;-95
2023/03/09 08:15:10;;;;;;;20.92;8.30;;;;;;;;;;6276827;22;20014;-95
2023/03/09 08:17:36;;;;;;;23.20;9.45;;;;;;;;;;6220851;22;20107;-94
2023/03/09 08:20:11;;;;;;;19.83;9.07;;;;;;;;;;6219837;22;20304;-94
2023/03/09 08:22:38;;;;;;;16.00;8.07;;;;;;;;;;6244563;22;20090;-94
2023/03/09 08:25:05;;;;;;;20.65;8.80;;;;;;;;;;6220970;22;20393;-94
2023/03/09 08:27:37;;;;;;;16.95;8.68;;;;;;;;;;6244451;22;20010;-94
2023/03/09 08:30:03;;;;;;;17.90;8.73;;;;;;;;;;6244696;22;20004;-95
2023/03/09 08:32:39;;;;;;;18.98;8.60;;;;;;;;;;6244805;22;20046;-94
2023/03/09 08:35:05;;;;;;;18.67;8.82;;;;;;;;;;6221462;22;20018;-94
2023/03/09 08:37:31;;;;;;;15.70;8.00;;;;;;;;;;6220922;22;20022;-94
2023/03/09 08:40:00;;;;;;;16.35;7.35;;;;;;;;;;6220471;22;20012;-94
2023/03/09 08:42:35;;;;;;;21.75;8.15;;;;;;;;;;6219573;22;20008;-95
2023/03/09 08:45:03;;;;;;;16.88;8.35;;;;;;;;;;6220362;22;20035;-94
2023/03/09 08:47:45;;;;;;;12.95;6.35;;;;;;;;;;6220018;22;20246;-95
2023/03/09 08:50:12;;;;;;;12.70;6.78;;;;;;;;;;6221574;22;20114;-95
2023/03/09 08:52:40;;;;;;;13.88;6.78;;;;;;;;;;6244272;22;20008;-94
2023/03/09 08:55:07;;;;;;;13.23;7.03;;;;;;;;;;6246807;22;20451;-95
2023/03/09 08:57:39;;;;;;;12.88;7.05;;;;;;;;;;6220961;22;20023;-95
2023/03/09 09:00:10;;;;;;;11.98;6.68;;;;;;;;;;6221013;22;20089;-94
2023/03/09 09:02:36;;;;;;;17.25;7.68;;;;;;;;;;6246516;22;20018;-95
2023/03/09 09:05:03;;;;;;;12.15;5.88;;;;;;;;;;6244903;22;20434;-95
2023/03/09 09:07:30;;;;;;;12.20;6.90;;;;;;;;;;6246226;22;20086;-95
2023/03/09 09:09:58;;;;;;;11.82;6.70;;;;;;;;;;6244676;22;20224;-95
2023/03/09 09:12:25;;;;;;;13.50;7.22;;;;;;;;;;6221489;22;20502;-95
2023/03/09 09:14:52;;;;;;;12.18;6.45;;;;;;;;;;6245760;22;20007;-94
2023/03/09 09:17:21;;;;;;;14.57;7.68;;;;;;;;;;6273738;22;20026;-95
2023/03/09 09:19:47;;;;;;;13.85;6.30;;;;;;;;;;6252911;22;20505;-96
2023/03/09 09:22:21;;;;;;;11.68;6.60;;;;;;;;;;6279247;22;20466;-94
2023/03/09 09:24:47;;;;;;;12.02;6.93;;;;;;;;;;6280099;22;20250;-94
2023/03/09 09:27:23;;;;;;;10.95;5.95;;;;;;;;;;6250996;22;20437;-93
2023/03/09 09:29:49;;;;;;;17.42;7.35;;;;;;;;;;6279606;22;20390;-94
2023/03/09 09:32:15;;;;;;;12.18;6.60;;;;;;;;;;6279746;22;20058;-95
2023/03/09 09:34:54;;;;;;;12.35;6.60;;;;;;;;;;6256680;22;20515;-93
2023/03/09 09:37:23;;;;;;;13.70;7.05;;;;;;;;;;6289339;22;20002;-94
2023/03/09 09:39:49;;;;;;;16.77;7.57;;;;;;;;;;6273975;22;20015;-95
2023/03/09 09:42:29;;;;;;;14.90;6.82;;;;;;;;;;6297370;22;20031;-94
2023/03/09 09:44:57;;;;;;;12.82;7.25;;;;;;;;;;6293259;22;20067;-93
2023/03/09 09:47:34;;;;;;;13.20;5.78;;;;;;;;;;6294394;22;20003;-93
2023/03/09 09:50:02;;;;;;;12.00;7.45;;;;;;;;;;6298329;22;20058;-94
2023/03/09 09:52:56;;;;;;;13.20;6.80;;;;;;;;;;6290672;22;20014;-94
2023/03/09 09:55:32;;;;;;;12.32;6.70;;;;;;;;;;6283492;22;20034;-94
2023/03/09 09:58:29;;;;;;;10.55;6.57;;;;;;;;;;6282428;22;20003;-94
2023/03/09 10:00:57;;;;;;;10.45;5.53;;;;;;;;;;6280996;22;20089;-93
2023/03/09 10:03:42;;;;;;;9.23;5.28;;;;;;;;;;6279803;22;20387;-93
2023/03/09 10:06:13;;;;;;;11.57;4.95;;;;;;;;;;6279365;22;20010;-94
2023/03/09 10:08:54;;;;;;;9.18;5.35;;;;;;;;;;6280725;22;20007;-95
2023/03/09 10:11:39;;;;;;;12.77;5.97;;;;;;;;;;6278494;22;20011;-94
2023/03/09 10:14:29;;;;;;;9.75;4.93;;;;;;;;;;6277398;22;20296;-95
2023/03/09 10:17:16;;;;;;;16.35;4.80;;;;;;;;;;6280443;22;20015;-94
2023/03/09 10:19:42;;;;;;;;;;;;;;;;;;6261152;22;20014;-94
2023/03/09 10:22:31;;;;;;;9.90;5.22;;;;;;;;;;6304667;22;19914;-95
2023/03/09 10:24:57;;;;;;;7.43;4.28;;;;;;;;;;6279267;22;20180;-94
2023/03/09 10:27:49;;;;;;;6.30;3.90;;;;;;;;;;6251601;22;20007;-95
2023/03/09 10:30:30;;;;;;;13.82;4.75;;;;;;;;;;6277516;22;19999;-94
2023/03/09 10:33:02;;;;;;;6.35;3.58;;;;;;;;;;6276899;22;20459;-95
2023/03/09 10:35:31;;;;;;;6.75;3.92;;;;;;;;;;6278331;22;20011;-93
2023/03/09 10:37:58;;;;;;;6.18;3.97;;;;;;;;;;6278356;22;20003;-95
2023/03/09 10:40:26;;;;;;;7.07;4.05;;;;;;;;;;6255829;22;20050;-93
2023/03/09 10:42:53;;;;;;;9.57;5.47;;;;;;;;;;6277131;22;20386;-94
2023/03/09 10:45:19;;;;;;;8.35;5.40;;;;;;;;;;6280591;22;20013;-95
2023/03/09 10:47:56;;;;;;;9.13;4.93;;;;;;;;;;6277509;22;20306;-93
2023/03/09 10:50:42;;;;;;;8.38;4.45;;;;;;;;;;6278303;22;20336;-94
2023/03/09 10:53:08;;;;;;;;;;;;;;;;;;6279580;22;20007;-94
2023/03/09 10:58:33;;;;;;;10.68;4.68;;;;;;;;;;6277102;22;20037;-94
2023/03/09 11:01:02;;;;;;;8.80;4.03;;;;;;;;;;6277120;22;20073;-95
2023/03/09 11:03:36;;;;;;;7.97;4.28;;;;;;;;;;6275204;22;20033;-94
2023/03/09 11:06:11;;;;;;;11.80;4.55;;;;;;;;;;6275875;22;20263;-95
2023/03/09 11:08:37;;;;;;;9.77;5.20;;;;;;;;;;6275496;22;20027;-95
2023/03/09 11:11:06;;;;;;;7.40;4.75;;;;;;;;;;6249084;22;20402;-93
2023/03/09 11:13:33;;;;;;;8.50;4.45;;;;;;;;;;6273960;22;20092;-95
2023/03/09 11:16:11;;;;;;;9.57;4.88;;;;;;;;;;6273212;22;20033;-95
2023/03/09 11:18:45;;;;;;;9.50;5.20;;;;;;;;;;6273321;22;20030;-95
2023/03/09 11:21:21;;;;;;;7.10;4.55;;;;;;;;;;6247420;22;20019;-95
2023/03/09 11:23:49;;;;;;;8.57;4.30;;;;;;;;;;6274085;22;20010;-94
2023/03/09 11:26:28;;;;;;;8.93;4.47;;;;;;;;;;6274201;22;20497;-94
2023/03/09 11:29:03;;;;;;;6.60;4.32;;;;;;;;;;6273244;22;20003;-95
2023/03/09 11:31:39;;;;;;;8.55;4.53;;;;;;;;;;6274535;22;20392;-96
2023/03/09 11:34:07;;;;;;;9.95;5.18;;;;;;;;;;6273589;22;20003;-94
2023/03/09 11:36:46;;;;;;;9.40;5.13;;;;;;;;;;6273912;22;20425;-94
2023/03/09 11:39:18;;;;;;;9.88;4.88;;;;;;;;;;6272702;22;20432;-95
2023/03/09 11:41:49;;;;;;;9.93;4.75;;;;;;;;;;6273576;22;20011;-95
2023/03/09 11:44:23;;;;;;;9.10;4.95;;;;;;;;;;6272434;22;20062;-96
2023/03/09 11:46:54;;;;;;;8.88;4.88;;;;;;;;;;6301767;22;20546;-95
2023/03/09 11:49:23;;;;;;;8.85;4.78;;;;;;;;;;6274082;22;20120;-94
2023/03/09 11:51:51;;;;;;;8.05;4.45;;;;;;;;;;6274426;22;20026;-96
2023/03/09 11:54:24;;;;;;;11.27;4.57;;;;;;;;;;6274127;22;20034;-94
2023/03/09 11:56:50;;;;;;;10.25;4.97;;;;;;;;;;6273384;22;20014;-94
2023/03/09 11:59:17;;;;;;;7.00;4.13;;;;;;;;;;6272170;22;20030;-96
2023/03/09 12:02:01;;;;;;;7.63;4.63;;;;;;;;;;6273951;22;20445;-95
2023/03/09 12:04:27;;;;;;;7.85;3.80;;;;;;;;;;6273676;22;20502;-94
2023/03/09 12:07:01;;;;;;;7.55;4.10;;;;;;;;;;6274532;22;20120;-95
2023/03/09 12:09:31;;;;;;;5.97;3.95;;;;;;;;;;6274886;22;20010;-95
2023/03/09 12:12:01;;;;;;;7.05;3.80;;;;;;;;;;6274606;22;20057;-94
2023/03/09 12:14:30;;;;;;;8.52;4.63;;;;;;;;;;6274887;22;20417;-95
2023/03/09 12:17:06;;;;;;;8.20;4.80;;;;;;;;;;6250660;22;20436;-95
2023/03/09 12:19:45;;;;;;;6.82;4.40;;;;;;;;;;6275529;22;20559;-95
2023/03/09 12:22:18;;;;;;;8.02;4.97;;;;;;;;;;6276994;22;20015;-94
2023/03/09 12:24:49;;;;;;;6.22;3.70;;;;;;;;;;6283588;22;20076;-96
2023/03/09 12:27:17;;;;;;;7.32;3.97;;;;;;;;;;6284468;22;20003;-96
2023/03/09 12:29:53;;;;;;;6.93;3.92;;;;;;;;;;6281513;22;20011;-96
2023/03/09 12:32:21;;;;;;;7.73;4.30;;;;;;;;;;6280784;22;20050;-96
2023/03/09 12:34:49;;;;;;;8.15;5.00;;;;;;;;;;6280297;22;20053;-96
2023/03/09 12:37:28;;;;;;;9.75;4.70;;;;;;;;;;6280424;22;20011;-96
2023/03/09 12:40:03;;;;;;;8.15;4.70;;;;;;;;;;6280217;22;20023;-96
2023/03/09 12:42:39;;;;;;;8.52;4.90;;;;;;;;;;6280596;22;20023;-96
2023/03/09 12:45:11;;;;;;;8.73;5.03;;;;;;;;;;6308844;22;20007;-96
2023/03/09 12:47:56;;;;;;;6.00;3.95;;;;;;;;;;6281482;22;20425;-96
2023/03/09 12:50:22;;;;;;;9.35;4.85;;;;;;;;;;6282011;22;20414;-96
2023/03/09 12:53:07;;;;;;;10.85;5.50;;;;;;;;;;6283799;22;20010;-96
2023/03/09 12:55:43;;;;;;;10.98;6.13;;;;;;;;;;6285598;22;20038;-96
2023/03/09 12:58:21;;;;;;;9.48;5.72;;;;;;;;;;6316240;22;20049;-96
2023/03/09 13:00:51;;;;;;;9.65;5.88;;;;;;;;;;6305355;22;20014;-96
2023/03/09 13:03:31;;;;;;;7.88;4.90;;;;;;;;;;6303806;22;20011;-95
2023/03/09 13:05:59;;;;;;;8.23;4.97;;;;;;;;;;6305596;22;19994;-96
2023/03/09 13:08:45;;;;;;;9.23;5.30;;;;;;;;;;6304132;22;20007;-96
2023/03/09 13:11:32;;;;;;;13.18;5.63;;;;;;;;;;6331245;22;20022;-96
2023/03/09 13:14:14;;;;;;;10.93;6.03;;;;;;;;;;6295014;22;20381;-96
2023/03/09 13:16:46;;;;;;;11.07;5.60;;;;;;;;;;6314236;22;20014;-96
2023/03/09 13:19:18;;;;;;;10.05;5.75;;;;;;;;;;6284825;22;20061;-95
2023/03/09 13:21:53;;;;;;;11.07;5.63;;;;;;;;;;6283447;22;20091;-96
2023/03/09 13:24:35;;;;;;;16.90;5.95;;;;;;;;;;6283503;22;20368;-96
2023/03/09 13:27:05;;;;;;;13.13;6.57;;;;;;;;;;6310105;22;20006;-96
2023/03/09 13:29:33;;;;;;;13.73;6.93;;;;;;;;;;6281388;22;20018;-96
2023/03/09 13:31:59;;;;;;;9.68;5.57;;;;;;;;;;6255759;22;20031;-96
2023/03/09 13:34:30;;;;;;;10.88;6.38;;;;;;;;;;6280285;22;20043;-96
2023/03/09 13:37:00;;;;;;;10.80;5.88;;;;;;;;;;6281080;22;20098;-96
2023/03/09 13:39:27;;;;;;;11.30;6.00;;;;;;;;;;6280386;22;20038;-96
2023/03/09 13:41:54;;;;;;;11.50;6.53;;;;;;;;;;6280505;22;20042;-95
2023/03/09 13:44:21;;;;;;;12.35;6.47;;;;;;;;;;6280017;22;20554;-96
2023/03/09 13:46:48;;;;;;;10.95;6.10;;;;;;;;;;6281290;22;20034;-96
2023/03/09 13:49:35;;;;;;;12.52;6.03;;;;;;;;;;6279437;22;20333;-96
2023/03/09 13:52:02;;;;;;;14.00;6.65;;;;;;;;;;6280300;22;20456;-96
2023/03/09 13:55:07;;;;;;;18.10;6.25;;;;;;;;;;6280754;22;20050;-96
2023/03/09 13:57:35;;;;;;;12.43;6.95;;;;;;;;;;6262272;22;20019;-96
2023/03/09 14:00:03;;;;;;;13.38;6.90;;;;;;;;;;6255210;22;20018;-96
2023/03/09 14:02:34;;;;;;;13.07;6.88;;;;;;;;;;6280700;22;20014;-96
2023/03/09 14:05:07;;;;;;;16.05;7.70;;;;;;;;;;6280692;22;20007;-96
2023/03/09 14:07:42;;;;;;;14.48;7.53;;;;;;;;;;6282067;22;20086;-96
2023/03/09 14:10:27;;;;;;;13.38;7.25;;;;;;;;;;6282304;22;20268;-96
2023/03/09 14:12:56;;;;;;;17.02;7.03;;;;;;;;;;6309506;22;20543;-96
2023/03/09 14:15:23;;;;;;;18.45;7.25;;;;;;;;;;6285898;22;20452;-96
2023/03/09 14:17:50;;;;;;;12.98;6.95;;;;;;;;;;6285347;22;20046;-96
2023/03/09 14:20:26;;;;;;;12.80;6.70;;;;;;;;;;6292817;22;20008;-95
2023/03/09 14:22:53;;;;;;;14.35;7.07;;;;;;;;;;6293368;22;20007;-95
2023/03/09 14:25:27;;;;;;;11.68;6.93;;;;;;;;;;6293488;22;20007;-95
2023/03/09 14:28:08;;;;;;;12.77;6.90;;;;;;;;;;6291110;22;20003;-94
2023/03/09 14:30:41;;;;;;;13.13;6.28;;;;;;;;;;6264193;22;20055;-96
2023/03/09 14:33:26;;;;;;;17.30;7.30;;;;;;;;;;6311882;22;20099;-96
2023/03/09 14:36:04;;;;;;;15.75;7.13;;;;;;;;;;6282062;22;20452;-96
2023/03/09 14:38:30;;;;;;;15.95;8.40;;;;;;;;;;6256727;22;20014;-96
2023/03/09 14:41:04;;;;;;;12.38;6.93;;;;;;;;;;6255677;22;20011;-96
2023/03/09 14:43:33;;;;;;;14.93;7.97;;;;;;;;;;6255234;22;20326;-96
2023/03/09 14:46:17;;;;;;;15.65;8.15;;;;;;;;;;6307780;22;20029;-96
2023/03/09 14:48:51;;;;;;;13.13;7.63;;;;;;;;;;6280491;22;20059;-96
2023/03/09 14:51:24;;;;;;;18.77;8.35;;;;;;;;;;6255203;22;20068;-96
2023/03/09 14:54:03;;;;;;;21.63;7.88;;;;;;;;;;6253999;22;20106;-96
2023/03/09 14:56:31;;;;;;;14.57;7.75;;;;;;;;;;6279956;22;20322;-96
2023/03/09 14:59:00;;;;;;;16.38;8.40;;;;;;;;;;6254242;22;20011;-96